createdAt,value
2017-11-28T00:00:41.658Z,5.50
2017-11-28T00:03:19.490Z,5.50
2017-11-28T00:05:54.316Z,5.50
2017-11-28T00:08:32.126Z,5.40
2017-11-28T00:11:05.743Z,5.40
2017-11-28T00:13:42.842Z,5.40
2017-11-28T00:16:16.744Z,5.40
2017-11-28T00:18:50.778Z,5.40
2017-11-28T00:21:24.802Z,5.30
2017-11-28T00:23:59.277Z,5.30
2017-11-28T00:26:33.071Z,5.30
2017-11-28T00:29:08.562Z,5.30
2017-11-28T00:31:43.686Z,5.20
2017-11-28T00:34:20.557Z,5.20
2017-11-28T00:36:58.820Z,5.30
2017-11-28T00:39:33.418Z,5.30
2017-11-28T00:42:09.473Z,5.20
2017-11-28T00:44:51.231Z,5.20
2017-11-28T00:47:31.181Z,5.20
2017-11-28T00:50:07.220Z,5.10
2017-11-28T00:52:43.522Z,5.10
2017-11-28T00:55:20.025Z,5.10
2017-11-28T00:57:56.661Z,5.10
2017-11-28T01:00:30.959Z,5.10
2017-11-28T01:03:25.660Z,5.00
2017-11-28T01:11:58.507Z,4.90
2017-11-28T01:14:32.308Z,4.90
2017-11-28T01:17:06.151Z,4.90
2017-11-28T01:19:39.963Z,5.00
2017-11-28T01:22:15.782Z,5.00
2017-11-28T01:24:49.796Z,5.00
2017-11-28T01:27:23.556Z,5.00
2017-11-28T01:29:58.744Z,5.00
2017-11-28T01:32:39.609Z,5.00
2017-11-28T01:35:20.882Z,4.90
2017-11-28T01:38:00.665Z,4.90
2017-11-28T01:40:36.860Z,4.90
2017-11-28T01:43:12.760Z,5.00
2017-11-28T01:45:52.759Z,5.00
2017-11-28T01:48:26.687Z,5.00
2017-11-28T01:51:02.516Z,5.00
2017-11-28T01:53:36.397Z,5.00
2017-11-28T01:56:11.105Z,5.00
2017-11-28T01:58:49.353Z,5.00
2017-11-28T02:01:25.834Z,5.10
2017-11-28T02:04:03.082Z,5.10
2017-11-28T02:06:38.971Z,5.10
2017-11-28T02:09:14.617Z,5.10
2017-11-28T02:11:50.844Z,5.10
2017-11-28T02:17:10.364Z,5.10
2017-11-28T02:19:45.759Z,5.10
2017-11-28T02:22:25.193Z,5.10
2017-11-28T02:25:02.343Z,5.10
2017-11-28T02:27:40.551Z,5.10
2017-11-28T02:30:17.892Z,5.10
2017-11-28T02:32:53.533Z,5.00
2017-11-28T02:35:33.779Z,4.90
2017-11-28T02:38:10.160Z,5.00
2017-11-28T02:43:37.172Z,5.00
2017-11-28T02:46:18.630Z,5.10
2017-11-28T02:48:57.543Z,5.10
2017-11-28T02:51:33.963Z,5.20
2017-11-28T02:54:11.417Z,5.20
2017-11-28T02:56:45.630Z,5.20
2017-11-28T02:59:26.538Z,5.20
2017-11-28T03:02:00.707Z,5.30
2017-11-28T03:04:35.196Z,5.20
2017-11-28T03:07:10.637Z,5.20
2017-11-28T03:09:51.081Z,5.20
2017-11-28T03:12:43.833Z,5.20
2017-11-28T03:15:19.871Z,5.10
2017-11-28T03:17:53.986Z,5.10
2017-11-28T03:20:37.332Z,5.00
2017-11-28T03:23:20.639Z,5.00
2017-11-28T03:25:55.975Z,5.00
2017-11-28T03:31:32.470Z,5.00
2017-11-28T03:34:10.188Z,5.00
2017-11-28T03:36:44.791Z,5.00
2017-11-28T03:39:18.387Z,5.00
2017-11-28T03:41:52.824Z,5.10
2017-11-28T03:47:39.119Z,5.20
2017-11-28T03:50:13.624Z,5.20
2017-11-28T03:52:49.791Z,5.20
2017-11-28T03:55:24.412Z,5.20
2017-11-28T03:57:58.121Z,5.10
2017-11-28T04:00:34.585Z,5.10
2017-11-28T04:03:13.717Z,5.10
2017-11-28T04:05:49.201Z,5.10
2017-11-28T04:08:23.467Z,5.10
2017-11-28T04:10:59.801Z,5.10
2017-11-28T04:16:39.342Z,5.20
2017-11-28T04:19:14.450Z,5.20
2017-11-28T04:22:02.683Z,5.00
2017-11-28T04:24:38.042Z,5.00
2017-11-28T04:27:13.725Z,5.00
2017-11-28T04:29:51.059Z,4.90
2017-11-28T04:32:25.490Z,4.90
2017-11-28T04:35:01.108Z,4.90
2017-11-28T04:37:36.637Z,4.80
2017-11-28T04:40:13.787Z,4.80
2017-11-28T04:42:50.079Z,4.80
2017-11-28T04:45:24.811Z,4.70
2017-11-28T04:47:59.058Z,4.70
2017-11-28T04:50:32.803Z,4.70
2017-11-28T04:53:19.731Z,4.70
2017-11-28T04:55:54.683Z,4.60
2017-11-28T04:58:28.510Z,4.60
2017-11-28T05:01:02.235Z,4.60
2017-11-28T05:03:37.449Z,4.60
2017-11-28T05:06:11.588Z,4.60
2017-11-28T05:08:46.470Z,4.50
2017-11-28T05:11:33.504Z,4.50
2017-11-28T05:14:07.669Z,4.60
2017-11-28T05:16:43.800Z,4.60
2017-11-28T05:19:17.750Z,4.50
2017-11-28T05:21:51.602Z,4.60
2017-11-28T05:24:26.255Z,4.50
2017-11-28T05:27:00.350Z,4.60
2017-11-28T05:29:36.681Z,4.60
2017-11-28T05:32:11.405Z,4.60
2017-11-28T05:34:50.094Z,4.60
2017-11-28T05:37:25.491Z,4.60
2017-11-28T05:39:59.923Z,4.70
2017-11-28T05:42:34.496Z,4.60
2017-11-28T05:45:08.347Z,4.60
2017-11-28T05:47:42.094Z,4.70
2017-11-28T05:50:21.353Z,4.70
2017-11-28T05:52:55.244Z,4.70
2017-11-28T05:55:33.261Z,4.70
2017-11-28T05:58:09.410Z,4.80
2017-11-28T06:00:43.920Z,4.80
2017-11-28T06:03:18.637Z,4.80
2017-11-28T06:05:52.895Z,4.80
2017-11-28T06:08:28.139Z,4.80
2017-11-28T06:11:03.657Z,4.80
2017-11-28T06:13:39.777Z,4.80
2017-11-28T06:16:13.399Z,4.80
2017-11-28T06:18:47.924Z,4.90
2017-11-28T06:21:22.666Z,4.90
2017-11-28T06:23:56.510Z,4.90
2017-11-28T06:26:32.108Z,4.90
2017-11-28T06:29:08.248Z,5.00
2017-11-28T06:31:43.070Z,5.00
2017-11-28T06:34:17.242Z,5.00
2017-11-28T06:36:53.755Z,4.90
2017-11-28T06:39:33.926Z,4.90
2017-11-28T06:42:25.623Z,4.90
2017-11-28T06:45:00.472Z,4.90
2017-11-28T06:47:35.325Z,5.00
2017-11-28T06:50:09.099Z,5.00
2017-11-28T06:52:42.965Z,5.10
2017-11-28T06:55:18.863Z,5.20
2017-11-28T06:57:52.481Z,5.20
2017-11-28T07:00:27.994Z,5.20
2017-11-28T07:03:03.024Z,5.20
2017-11-28T07:05:36.663Z,5.30
2017-11-28T07:08:10.370Z,5.30
2017-11-28T07:10:44.175Z,5.30
2017-11-28T07:13:17.947Z,5.40
2017-11-28T07:15:52.192Z,5.40
2017-11-28T07:18:25.863Z,5.40
2017-11-28T07:21:00.338Z,5.50
2017-11-28T07:23:34.098Z,5.50
2017-11-28T07:26:08.701Z,5.50
2017-11-28T07:28:43.767Z,5.50
2017-11-28T07:31:17.555Z,5.50
2017-11-28T07:33:52.978Z,5.50
2017-11-28T07:36:27.763Z,5.50
2017-11-28T07:39:01.491Z,5.50
2017-11-28T07:41:35.341Z,5.50
2017-11-28T07:44:09.787Z,5.60
2017-11-28T07:46:44.298Z,5.60
2017-11-28T07:49:19.958Z,5.60
2017-11-28T07:51:53.692Z,5.60
2017-11-28T07:54:28.541Z,5.60
2017-11-28T07:57:02.224Z,5.60
2017-11-28T07:59:36.179Z,5.70
2017-11-28T08:02:12.478Z,5.70
2017-11-28T08:04:47.617Z,5.70
2017-11-28T08:07:21.350Z,5.70
2017-11-28T08:09:57.379Z,5.80
2017-11-28T08:12:31.178Z,5.80
2017-11-28T08:15:09.192Z,5.90
2017-11-28T08:17:44.875Z,5.80
2017-11-28T08:20:19.148Z,5.90
2017-11-28T08:22:53.983Z,5.80
2017-11-28T08:25:28.592Z,5.90
2017-11-28T08:28:05.215Z,5.90
2017-11-28T08:30:39.153Z,6.00
2017-11-28T08:33:14.813Z,6.00
2017-11-28T08:35:48.501Z,6.10
2017-11-28T08:38:23.133Z,6.10
2017-11-28T08:40:56.811Z,6.10
2017-11-28T08:43:31.350Z,6.00
2017-11-28T08:46:05.200Z,6.00
2017-11-28T08:48:38.952Z,6.00
2017-11-28T08:51:13.025Z,6.00
2017-11-28T08:53:47.655Z,6.00
2017-11-28T08:56:23.867Z,6.10
2017-11-28T08:58:57.551Z,6.20
2017-11-28T09:01:31.422Z,6.30
2017-11-28T09:04:06.459Z,6.30
2017-11-28T09:06:41.804Z,6.30
2017-11-28T09:09:16.731Z,6.40
2017-11-28T09:11:50.594Z,6.40
2017-11-28T09:14:25.344Z,6.40
2017-11-28T09:17:03.812Z,6.50
2017-11-28T09:19:38.757Z,6.40
2017-11-28T09:22:12.393Z,6.50
2017-11-28T09:24:46.450Z,6.50
2017-11-28T09:27:20.266Z,6.50
2017-11-28T09:29:54.954Z,6.50
2017-11-28T09:32:28.681Z,6.60
2017-11-28T09:35:02.808Z,6.70
2017-11-28T09:37:38.415Z,6.70
2017-11-28T09:40:14.816Z,6.70
2017-11-28T09:42:49.630Z,6.70
2017-11-28T09:45:24.026Z,6.70
2017-11-28T09:48:00.739Z,6.70
2017-11-28T09:50:36.049Z,6.80
2017-11-28T09:53:10.897Z,6.80
2017-11-28T09:55:44.615Z,6.70
2017-11-28T09:58:18.389Z,6.70
2017-11-28T10:00:52.962Z,6.70
2017-11-28T10:03:27.637Z,6.70
2017-11-28T10:06:02.064Z,6.70
2017-11-28T10:08:35.709Z,6.80
2017-11-28T10:11:10.371Z,6.90
2017-11-28T10:13:44.058Z,6.80
2017-11-28T10:16:18.460Z,6.80
2017-11-28T10:18:52.249Z,6.70
2017-11-28T10:21:25.953Z,6.70
2017-11-28T10:23:59.761Z,6.70
2017-11-28T10:26:33.446Z,6.70
2017-11-28T10:29:07.761Z,6.60
2017-11-28T10:31:41.550Z,6.60
2017-11-28T10:34:15.795Z,6.70
2017-11-28T10:36:50.383Z,6.70
2017-11-28T10:39:25.070Z,6.80
2017-11-28T10:41:59.864Z,7.00
2017-11-28T10:44:34.012Z,7.10
2017-11-28T10:47:07.875Z,7.10
2017-11-28T10:49:44.958Z,7.10
2017-11-28T10:52:20.891Z,7.10
2017-11-28T10:54:55.702Z,7.10
2017-11-28T10:57:30.842Z,7.30
2017-11-28T11:00:08.075Z,7.30
2017-11-28T11:02:41.878Z,7.20
2017-11-28T11:05:17.987Z,7.10
2017-11-28T11:07:52.291Z,7.10
2017-11-28T11:10:28.173Z,7.10
2017-11-28T11:13:04.481Z,7.30
2017-11-28T11:15:38.783Z,7.30
2017-11-28T11:18:13.523Z,7.50
2017-11-28T11:20:47.842Z,7.40
2017-11-28T11:23:24.381Z,7.40
2017-11-28T11:25:59.560Z,7.30
2017-11-28T11:28:38.516Z,7.50
2017-11-28T11:31:15.557Z,7.50
2017-11-28T11:34:01.044Z,7.50
2017-11-28T11:36:38.452Z,7.60
2017-11-28T11:39:18.593Z,7.50
2017-11-28T11:41:58.798Z,7.50
2017-11-28T11:44:37.297Z,7.50
2017-11-28T11:47:12.410Z,7.60
2017-11-28T11:49:47.438Z,7.50
2017-11-28T11:52:24.457Z,7.40
2017-11-28T11:55:03.021Z,7.50
2017-11-28T11:57:41.886Z,7.50
2017-11-28T12:00:19.199Z,7.50
2017-11-28T12:02:55.952Z,7.40
2017-11-28T12:05:31.137Z,7.50
2017-11-28T12:08:06.192Z,7.50
2017-11-28T12:10:41.609Z,7.50
2017-11-28T12:13:15.316Z,7.40
2017-11-28T12:15:49.058Z,7.40
2017-11-28T12:18:23.640Z,7.30
2017-11-28T12:20:57.341Z,7.30
2017-11-28T12:23:31.052Z,7.30
2017-11-28T12:26:04.722Z,7.20
2017-11-28T12:28:38.432Z,7.20
2017-11-28T12:31:12.541Z,7.30
2017-11-28T12:33:46.987Z,7.40
2017-11-28T12:36:22.050Z,7.30
2017-11-28T12:38:56.175Z,7.30
2017-11-28T12:41:30.364Z,7.30
2017-11-28T12:44:04.928Z,7.50
2017-11-28T12:46:40.187Z,7.40
2017-11-28T12:49:13.960Z,7.70
2017-11-28T12:51:49.004Z,8.00
2017-11-28T12:54:25.594Z,8.10
2017-11-28T12:57:01.401Z,7.90
2017-11-28T12:59:35.263Z,7.70
2017-11-28T13:02:10.134Z,7.50
2017-11-28T13:04:43.902Z,7.40
2017-11-28T13:07:18.482Z,7.30
2017-11-28T13:09:52.315Z,7.30
2017-11-28T13:12:26.115Z,7.30
2017-11-28T13:15:00.850Z,7.30
2017-11-28T13:17:35.410Z,7.30
2017-11-28T13:20:10.221Z,7.30
2017-11-28T13:22:44.012Z,7.30
2017-11-28T13:25:17.832Z,7.40
2017-11-28T13:27:52.380Z,7.40
2017-11-28T13:30:26.906Z,7.40
2017-11-28T13:33:00.707Z,7.30
2017-11-28T13:35:34.805Z,7.40
2017-11-28T13:38:09.560Z,7.30
2017-11-28T13:40:43.350Z,7.40
2017-11-28T13:43:17.042Z,7.40
2017-11-28T13:45:50.722Z,7.30
2017-11-28T13:48:30.458Z,7.30
2017-11-28T13:51:04.066Z,7.20
2017-11-28T13:53:37.866Z,7.20
2017-11-28T13:56:15.983Z,7.10
2017-11-28T13:58:49.738Z,7.00
2017-11-28T14:01:24.345Z,7.00
2017-11-28T14:03:59.250Z,7.00
2017-11-28T14:06:34.924Z,7.00
2017-11-28T14:09:09.579Z,7.10
2017-11-28T14:11:43.713Z,7.00
2017-11-28T14:14:17.543Z,7.10
2017-11-28T14:16:53.996Z,7.00
2017-11-28T14:19:29.852Z,6.90
2017-11-28T14:22:06.040Z,6.80
2017-11-28T14:24:51.127Z,6.80
2017-11-28T14:27:24.978Z,6.90
2017-11-28T14:29:59.299Z,7.30
2017-11-28T14:32:38.759Z,7.50
2017-11-28T14:35:16.137Z,7.20
2017-11-28T14:37:51.279Z,6.90
2017-11-28T14:40:27.465Z,6.90
2017-11-28T14:43:11.942Z,6.90
2017-11-28T14:45:45.824Z,6.80
2017-11-28T14:48:19.617Z,6.80
2017-11-28T14:50:59.098Z,6.70
2017-11-28T14:53:38.550Z,6.70
2017-11-28T14:56:12.905Z,6.70
2017-11-28T14:58:50.093Z,6.70
2017-11-28T15:01:24.674Z,6.60
2017-11-28T15:03:58.817Z,6.60
2017-11-28T15:06:38.222Z,6.50
2017-11-28T15:09:17.795Z,6.50
2017-11-28T15:11:57.413Z,6.50
2017-11-28T15:20:47.107Z,6.40
2017-11-28T15:23:20.982Z,6.40
2017-11-28T15:25:54.686Z,6.40
2017-11-28T15:28:43.340Z,6.40
2017-11-28T15:31:18.627Z,6.50
2017-11-28T15:33:52.241Z,6.40
2017-11-28T15:36:25.991Z,6.40
2017-11-28T15:38:59.740Z,6.40
2017-11-28T15:41:34.837Z,6.40
2017-11-28T15:44:08.509Z,6.40
2017-11-28T15:46:42.297Z,6.40
2017-11-28T15:49:16.134Z,6.40
2017-11-28T15:51:50.167Z,6.40
2017-11-28T15:54:25.926Z,6.30
2017-11-28T15:56:59.790Z,6.30
2017-11-28T15:59:36.511Z,6.10
2017-11-28T16:02:12.148Z,6.00
2017-11-28T16:04:46.177Z,6.10
2017-11-28T16:07:21.318Z,6.00
2017-11-28T16:09:55.128Z,6.00
2017-11-28T16:12:28.961Z,5.90
2017-11-28T16:15:03.808Z,5.90
2017-11-28T16:17:38.623Z,6.00
2017-11-28T16:20:12.431Z,6.00
2017-11-28T16:22:46.318Z,6.00
2017-11-28T16:25:19.982Z,6.00
2017-11-28T16:27:53.777Z,6.00
2017-11-28T16:30:29.158Z,6.00
2017-11-28T16:33:03.347Z,6.00
2017-11-28T16:35:37.864Z,6.00
2017-11-28T16:38:12.128Z,6.00
2017-11-28T16:40:45.982Z,5.90
2017-11-28T16:43:26.600Z,5.80
2017-11-28T16:46:02.302Z,5.70
2017-11-28T16:51:35.500Z,5.80
2017-11-28T16:54:09.566Z,5.80
2017-11-28T16:56:44.939Z,5.80
2017-11-28T16:59:20.412Z,5.90
2017-11-28T17:01:58.770Z,5.90
2017-11-28T17:04:53.525Z,6.00
2017-11-28T17:07:28.159Z,6.00
2017-11-28T17:10:03.882Z,6.00
2017-11-28T17:12:38.474Z,5.90
2017-11-28T17:15:12.142Z,5.90
2017-11-28T17:17:47.610Z,5.80
2017-11-28T17:20:21.933Z,5.80
2017-11-28T17:22:55.709Z,5.80
2017-11-28T17:25:30.224Z,5.80
2017-11-28T17:28:05.061Z,5.70
2017-11-28T17:30:38.940Z,5.60
2017-11-28T17:33:14.540Z,5.60
2017-11-28T17:35:48.274Z,5.60
2017-11-28T17:38:23.283Z,5.60
2017-11-28T17:40:59.153Z,5.50
2017-11-28T17:43:41.799Z,5.50
2017-11-28T17:46:23.489Z,5.50
2017-11-28T17:48:57.507Z,5.50
2017-11-28T17:51:31.684Z,5.40
2017-11-28T17:54:06.632Z,5.40
2017-11-28T17:56:41.594Z,5.30
2017-11-28T17:59:19.229Z,5.30
2017-11-28T18:01:56.919Z,5.30
2017-11-28T18:04:37.043Z,5.20
2017-11-28T18:07:17.890Z,5.20
2017-11-28T18:09:54.513Z,5.20
2017-11-28T18:12:29.020Z,5.20
2017-11-28T18:21:15.969Z,5.10
2017-11-28T18:23:50.002Z,5.10
2017-11-28T18:26:27.188Z,5.00
2017-11-28T18:29:01.341Z,5.00
2017-11-28T18:31:50.178Z,4.90
2017-11-28T18:37:33.995Z,4.80
2017-11-28T18:40:12.898Z,4.80
2017-11-28T18:42:47.177Z,4.80
2017-11-28T18:45:21.263Z,4.80
2017-11-28T18:47:55.602Z,4.80
2017-11-28T18:50:35.160Z,4.80
2017-11-28T18:53:09.801Z,4.80
2017-11-28T19:31:44.281Z,5.10
2017-11-28T19:34:20.822Z,5.20
2017-11-28T19:36:55.581Z,5.20
2017-11-28T19:39:30.978Z,5.30
2017-11-28T19:42:04.578Z,5.30
2017-11-28T19:44:40.848Z,5.30
2017-11-28T19:47:16.384Z,5.30
2017-11-28T19:49:50.210Z,5.40
2017-11-28T19:52:26.359Z,5.40
2017-11-28T19:55:02.581Z,5.40
2017-11-28T19:57:38.805Z,5.40
2017-11-28T20:00:18.857Z,5.40
2017-11-28T20:02:55.292Z,5.40
2017-11-28T20:05:29.940Z,5.40
2017-11-28T20:29:11.205Z,5.30
2017-11-28T20:37:36.295Z,5.30
2017-11-28T20:40:16.653Z,5.30
2017-11-28T20:42:56.447Z,5.30
2017-11-28T20:45:48.275Z,5.30
2017-11-28T20:48:28.218Z,5.40
2017-11-28T21:02:01.786Z,5.30
2017-11-28T21:04:46.531Z,5.30
2017-11-28T21:07:22.514Z,5.40
2017-11-28T21:09:58.571Z,5.40
2017-11-28T21:12:34.997Z,5.30
2017-11-28T21:15:10.017Z,5.30
2017-11-28T21:17:49.528Z,5.30
2017-11-28T21:20:26.765Z,5.30
2017-11-28T21:23:01.300Z,5.30
2017-11-28T21:25:35.272Z,5.30
2017-11-28T21:28:08.982Z,5.30
2017-11-28T21:30:43.526Z,5.30
2017-11-28T21:33:17.294Z,5.30
2017-11-28T21:35:52.063Z,5.30
2017-11-28T21:38:26.916Z,5.30
2017-11-28T21:41:00.782Z,5.30
2017-11-28T21:43:35.342Z,5.20
2017-11-28T21:46:08.929Z,5.20
2017-11-28T21:48:43.795Z,5.20
2017-11-28T21:51:18.415Z,5.10
2017-11-28T21:53:52.091Z,5.10
2017-11-28T21:56:26.219Z,5.10
2017-11-28T21:59:00.561Z,5.10
2017-11-28T22:01:34.436Z,5.00
2017-11-28T22:04:09.118Z,5.00
2017-11-28T22:06:42.741Z,5.00
2017-11-28T22:09:17.478Z,4.90
2017-11-28T22:11:51.119Z,4.90
2017-11-28T22:14:25.874Z,4.80
2017-11-28T22:17:00.319Z,4.70
2017-11-28T22:19:35.187Z,4.70
2017-11-28T22:22:09.055Z,4.70
2017-11-28T22:24:42.914Z,4.60
2017-11-28T22:27:18.766Z,4.50
2017-11-28T22:29:53.949Z,4.50
2017-11-28T22:32:28.435Z,4.40
2017-11-28T22:35:04.637Z,4.40
2017-11-28T22:37:39.727Z,4.40
2017-11-28T22:40:14.120Z,4.40
2017-11-28T22:42:47.812Z,4.30
2017-11-28T22:45:22.372Z,4.30
2017-11-28T22:47:58.071Z,4.20
2017-11-28T22:50:32.559Z,4.20
2017-11-28T22:53:06.485Z,4.20
2017-11-28T22:55:40.245Z,4.20
2017-11-28T22:58:14.096Z,4.10
2017-11-28T23:00:47.858Z,4.10
2017-11-28T23:03:23.169Z,4.10
2017-11-28T23:05:59.088Z,4.10
2017-11-28T23:08:33.118Z,4.10
2017-11-28T23:11:07.130Z,4.10
2017-11-28T23:13:52.654Z,4.20
2017-11-28T23:16:26.520Z,4.20
2017-11-28T23:19:00.540Z,4.20
2017-11-28T23:21:34.345Z,4.20
2017-11-28T23:24:09.141Z,4.20
2017-11-28T23:26:43.736Z,4.10
2017-11-28T23:29:17.918Z,4.10
2017-11-28T23:31:52.374Z,4.10
2017-11-28T23:34:26.733Z,4.00
2017-11-28T23:37:04.470Z,4.00
2017-11-28T23:39:38.197Z,3.90
2017-11-28T23:42:12.380Z,3.90
2017-11-28T23:44:46.216Z,3.90
2017-11-28T23:47:20.414Z,3.80
2017-11-28T23:49:54.209Z,3.80
2017-11-28T23:52:28.008Z,3.70
2017-11-28T23:55:02.511Z,3.70
2017-11-28T23:57:39.972Z,3.70
